sensor_id;sensor_type;location;lat;lon;timestamp;temperature;humidity
10249;DHT22;5169;50.560;9.714;2023-04-15T00:01:50;6.40;99.90
10249;DHT22;5169;50.560;9.714;2023-04-15T00:04:16;6.40;99.90
10249;DHT22;5169;50.560;9.714;2023-04-15T00:06:42;6.40;99.90
10249;DHT22;5169;50.560;9.714;2023-04-15T00:09:16;6.30;99.90
10249;DHT22;5169;50.560;9.714;2023-04-15T00:11:42;6.20;99.90
10249;DHT22;5169;50.560;9.714;2023-04-15T00:14:12;6.00;99.90
10249;DHT22;5169;50.560;9.714;2023-04-15T00:16:40;6.00;99.90
10249;DHT22;5169;50.560;9.714;2023-04-15T00:19:05;6.00;99.90
10249;DHT22;5169;50.560;9.714;2023-04-15T00:21:31;6.10;99.90
10249;DHT22;5169;50.560;9.714;2023-04-15T00:23:57;6.10;99.90
10249;DHT22;5169;50.560;9.714;2023-04-15T00:26:22;6.00;99.90
10249;DHT22;5169;50.560;9.714;2023-04-15T00:28:48;6.10;99.90
10249;DHT22;5169;50.560;9.714;2023-04-15T00:31:13;6.10;99.90
10249;DHT22;5169;50.560;9.714;2023-04-15T00:33:44;6.00;99.90
10249;DHT22;5169;50.560;9.714;2023-04-15T00:36:10;6.00;99.90
10249;DHT22;5169;50.560;9.714;2023-04-15T00:38:37;6.20;99.90
10249;DHT22;5169;50.560;9.714;2023-04-15T00:41:03;6.20;99.90
10249;DHT22;5169;50.560;9.714;2023-04-15T00:43:29;6.10;99.90
10249;DHT22;5169;50.560;9.714;2023-04-15T00:45:57;6.20;99.90
10249;DHT22;5169;50.560;9.714;2023-04-15T00:48:23;6.20;99.90
10249;DHT22;5169;50.560;9.714;2023-04-15T00:50:50;6.30;99.90
10249;DHT22;5169;50.560;9.714;2023-04-15T00:53:16;6.20;99.90
10249;DHT22;5169;50.560;9.714;2023-04-15T00:55:41;6.20;99.90
10249;DHT22;5169;50.560;9.714;2023-04-15T00:58:09;6.00;99.90
10249;DHT22;5169;50.560;9.714;2023-04-15T01:00:39;6.00;99.90
10249;DHT22;5169;50.560;9.714;2023-04-15T01:03:05;6.10;99.90
10249;DHT22;5169;50.560;9.714;2023-04-15T01:05:32;5.90;99.90
10249;DHT22;5169;50.560;9.714;2023-04-15T01:08:01;5.80;99.90
10249;DHT22;5169;50.560;9.714;2023-04-15T01:10:30;5.80;99.90
10249;DHT22;5169;50.560;9.714;2023-04-15T01:12:56;5.80;99.90
10249;DHT22;5169;50.560;9.714;2023-04-15T01:15:22;6.00;99.90
10249;DHT22;5169;50.560;9.714;2023-04-15T01:17:47;6.00;99.90
10249;DHT22;5169;50.560;9.714;2023-04-15T01:20:15;6.10;99.90
10249;DHT22;5169;50.560;9.714;2023-04-15T01:22:41;6.10;99.90
10249;DHT22;5169;50.560;9.714;2023-04-15T01:27:46;6.10;99.90
10249;DHT22;5169;50.560;9.714;2023-04-15T01:30:15;6.00;99.90
10249;DHT22;5169;50.560;9.714;2023-04-15T01:32:43;5.80;99.90
10249;DHT22;5169;50.560;9.714;2023-04-15T01:35:11;5.80;99.90
10249;DHT22;5169;50.560;9.714;2023-04-15T01:37:36;6.00;99.90
10249;DHT22;5169;50.560;9.714;2023-04-15T01:40:02;6.10;99.90
10249;DHT22;5169;50.560;9.714;2023-04-15T01:42:28;6.10;99.90
10249;DHT22;5169;50.560;9.714;2023-04-15T01:44:53;6.00;99.90
10249;DHT22;5169;50.560;9.714;2023-04-15T01:47:19;6.00;99.90
10249;DHT22;5169;50.560;9.714;2023-04-15T01:49:45;5.90;99.90
10249;DHT22;5169;50.560;9.714;2023-04-15T01:52:11;6.00;99.90
10249;DHT22;5169;50.560;9.714;2023-04-15T01:54:38;6.00;99.90
10249;DHT22;5169;50.560;9.714;2023-04-15T01:57:04;5.90;99.90
10249;DHT22;5169;50.560;9.714;2023-04-15T01:59:30;5.60;99.90
10249;DHT22;5169;50.560;9.714;2023-04-15T02:01:56;5.50;99.90
10249;DHT22;5169;50.560;9.714;2023-04-15T02:04:22;5.50;99.90
10249;DHT22;5169;50.560;9.714;2023-04-15T02:06:49;5.50;99.90
10249;DHT22;5169;50.560;9.714;2023-04-15T02:09:15;5.60;99.90
10249;DHT22;5169;50.560;9.714;2023-04-15T02:11:43;5.90;99.90
10249;DHT22;5169;50.560;9.714;2023-04-15T02:14:09;5.80;99.90
10249;DHT22;5169;50.560;9.714;2023-04-15T02:16:37;5.80;99.90
10249;DHT22;5169;50.560;9.714;2023-04-15T02:19:02;6.00;99.90
10249;DHT22;5169;50.560;9.714;2023-04-15T02:21:29;6.00;99.90
10249;DHT22;5169;50.560;9.714;2023-04-15T02:23:57;6.00;99.90
10249;DHT22;5169;50.560;9.714;2023-04-15T02:26:22;6.00;99.90
10249;DHT22;5169;50.560;9.714;2023-04-15T02:28:49;6.00;99.90
10249;DHT22;5169;50.560;9.714;2023-04-15T02:31:16;6.00;99.90
10249;DHT22;5169;50.560;9.714;2023-04-15T02:33:44;6.00;99.90
10249;DHT22;5169;50.560;9.714;2023-04-15T02:36:09;5.90;99.90
10249;DHT22;5169;50.560;9.714;2023-04-15T02:38:36;5.90;99.90
10249;DHT22;5169;50.560;9.714;2023-04-15T02:41:06;5.80;99.90
10249;DHT22;5169;50.560;9.714;2023-04-15T02:43:32;6.00;99.90
10249;DHT22;5169;50.560;9.714;2023-04-15T02:46:00;5.90;99.90
10249;DHT22;5169;50.560;9.714;2023-04-15T02:48:26;5.80;99.90
10249;DHT22;5169;50.560;9.714;2023-04-15T02:50:51;5.80;99.90
10249;DHT22;5169;50.560;9.714;2023-04-15T02:53:17;5.70;99.90
10249;DHT22;5169;50.560;9.714;2023-04-15T02:55:44;5.60;99.90
10249;DHT22;5169;50.560;9.714;2023-04-15T02:58:09;5.50;99.90
10249;DHT22;5169;50.560;9.714;2023-04-15T03:00:35;5.60;99.90
10249;DHT22;5169;50.560;9.714;2023-04-15T03:03:04;5.70;99.90
10249;DHT22;5169;50.560;9.714;2023-04-15T03:05:30;5.80;99.90
10249;DHT22;5169;50.560;9.714;2023-04-15T03:08:00;5.80;99.90
10249;DHT22;5169;50.560;9.714;2023-04-15T03:10:27;5.70;99.90
10249;DHT22;5169;50.560;9.714;2023-04-15T03:12:52;5.70;99.90
10249;DHT22;5169;50.560;9.714;2023-04-15T03:15:18;5.60;99.90
10249;DHT22;5169;50.560;9.714;2023-04-15T03:17:44;5.60;99.90
10249;DHT22;5169;50.560;9.714;2023-04-15T03:20:09;5.50;99.90
10249;DHT22;5169;50.560;9.714;2023-04-15T03:22:35;5.60;99.90
10249;DHT22;5169;50.560;9.714;2023-04-15T03:25:01;5.60;99.90
10249;DHT22;5169;50.560;9.714;2023-04-15T03:27:26;5.70;99.90
10249;DHT22;5169;50.560;9.714;2023-04-15T03:29:56;5.70;99.90
10249;DHT22;5169;50.560;9.714;2023-04-15T03:32:27;5.70;99.90
10249;DHT22;5169;50.560;9.714;2023-04-15T03:34:52;5.70;99.90
10249;DHT22;5169;50.560;9.714;2023-04-15T03:37:18;5.60;99.90
10249;DHT22;5169;50.560;9.714;2023-04-15T03:39:43;5.50;99.90
10249;DHT22;5169;50.560;9.714;2023-04-15T03:42:11;5.50;99.90
10249;DHT22;5169;50.560;9.714;2023-04-15T03:44:39;5.50;99.90
10249;DHT22;5169;50.560;9.714;2023-04-15T03:47:07;5.50;99.90
10249;DHT22;5169;50.560;9.714;2023-04-15T03:49:33;5.40;99.90
10249;DHT22;5169;50.560;9.714;2023-04-15T03:51:58;5.30;99.90
10249;DHT22;5169;50.560;9.714;2023-04-15T03:54:24;5.20;99.90
10249;DHT22;5169;50.560;9.714;2023-04-15T03:56:50;5.10;99.90
10249;DHT22;5169;50.560;9.714;2023-04-15T03:59:15;5.10;99.90
10249;DHT22;5169;50.560;9.714;2023-04-15T04:01:41;5.00;99.90
10249;DHT22;5169;50.560;9.714;2023-04-15T04:04:06;4.90;99.90
10249;DHT22;5169;50.560;9.714;2023-04-15T04:06:32;4.90;99.90
10249;DHT22;5169;50.560;9.714;2023-04-15T04:09:00;4.80;99.90
10249;DHT22;5169;50.560;9.714;2023-04-15T04:11:26;4.90;99.90
10249;DHT22;5169;50.560;9.714;2023-04-15T04:13:52;4.90;99.90
10249;DHT22;5169;50.560;9.714;2023-04-15T04:16:18;4.70;99.90
10249;DHT22;5169;50.560;9.714;2023-04-15T04:18:44;4.60;99.90
10249;DHT22;5169;50.560;9.714;2023-04-15T04:21:10;4.60;99.90
10249;DHT22;5169;50.560;9.714;2023-04-15T04:23:36;4.50;99.90
10249;DHT22;5169;50.560;9.714;2023-04-15T04:26:01;4.40;99.90
10249;DHT22;5169;50.560;9.714;2023-04-15T04:28:27;4.40;99.90
10249;DHT22;5169;50.560;9.714;2023-04-15T04:30:55;4.40;99.90
10249;DHT22;5169;50.560;9.714;2023-04-15T04:33:21;4.40;99.90
10249;DHT22;5169;50.560;9.714;2023-04-15T04:35:46;4.40;99.90
10249;DHT22;5169;50.560;9.714;2023-04-15T04:38:12;4.50;99.90
10249;DHT22;5169;50.560;9.714;2023-04-15T04:40:37;4.60;99.90
10249;DHT22;5169;50.560;9.714;2023-04-15T04:43:03;4.50;99.90
10249;DHT22;5169;50.560;9.714;2023-04-15T04:45:29;4.60;99.90
10249;DHT22;5169;50.560;9.714;2023-04-15T04:47:55;4.90;99.90
10249;DHT22;5169;50.560;9.714;2023-04-15T04:50:20;5.10;99.90
10249;DHT22;5169;50.560;9.714;2023-04-15T04:52:48;5.10;99.90
10249;DHT22;5169;50.560;9.714;2023-04-15T04:55:14;5.30;99.90
10249;DHT22;5169;50.560;9.714;2023-04-15T04:57:39;5.20;99.90
10249;DHT22;5169;50.560;9.714;2023-04-15T05:00:06;5.20;99.90
10249;DHT22;5169;50.560;9.714;2023-04-15T05:02:36;5.10;99.90
10249;DHT22;5169;50.560;9.714;2023-04-15T05:05:02;5.10;99.90
10249;DHT22;5169;50.560;9.714;2023-04-15T05:07:30;5.10;99.90
10249;DHT22;5169;50.560;9.714;2023-04-15T05:09:57;5.30;99.90
10249;DHT22;5169;50.560;9.714;2023-04-15T05:12:23;5.40;99.90
10249;DHT22;5169;50.560;9.714;2023-04-15T05:14:49;5.30;99.90
10249;DHT22;5169;50.560;9.714;2023-04-15T05:17:14;5.50;99.90
10249;DHT22;5169;50.560;9.714;2023-04-15T05:19:40;5.80;99.90
10249;DHT22;5169;50.560;9.714;2023-04-15T05:22:13;5.90;99.90
10249;DHT22;5169;50.560;9.714;2023-04-15T05:24:41;6.00;99.90
10249;DHT22;5169;50.560;9.714;2023-04-15T05:27:06;6.00;99.90
10249;DHT22;5169;50.560;9.714;2023-04-15T05:29:35;6.00;99.90
10249;DHT22;5169;50.560;9.714;2023-04-15T05:32:00;6.10;99.90
10249;DHT22;5169;50.560;9.714;2023-04-15T05:34:26;6.10;99.90
10249;DHT22;5169;50.560;9.714;2023-04-15T05:36:54;6.10;99.90
10249;DHT22;5169;50.560;9.714;2023-04-15T05:39:19;6.10;99.90
10249;DHT22;5169;50.560;9.714;2023-04-15T05:41:47;6.10;99.90
10249;DHT22;5169;50.560;9.714;2023-04-15T05:44:13;6.20;99.90
10249;DHT22;5169;50.560;9.714;2023-04-15T05:46:38;6.20;99.90
10249;DHT22;5169;50.560;9.714;2023-04-15T05:49:06;6.30;99.90
10249;DHT22;5169;50.560;9.714;2023-04-15T05:51:34;6.10;99.90
10249;DHT22;5169;50.560;9.714;2023-04-15T05:54:03;6.30;99.90
10249;DHT22;5169;50.560;9.714;2023-04-15T05:56:28;6.40;99.90
10249;DHT22;5169;50.560;9.714;2023-04-15T05:58:54;6.40;99.90
10249;DHT22;5169;50.560;9.714;2023-04-15T06:01:19;6.40;99.90
10249;DHT22;5169;50.560;9.714;2023-04-15T06:03:47;6.40;99.90
10249;DHT22;5169;50.560;9.714;2023-04-15T06:06:13;6.60;99.90
10249;DHT22;5169;50.560;9.714;2023-04-15T06:08:42;6.60;99.90
10249;DHT22;5169;50.560;9.714;2023-04-15T06:11:13;6.60;99.90
10249;DHT22;5169;50.560;9.714;2023-04-15T06:13:38;6.60;99.90
10249;DHT22;5169;50.560;9.714;2023-04-15T06:16:04;6.80;99.90
10249;DHT22;5169;50.560;9.714;2023-04-15T06:18:30;6.90;99.90
10249;DHT22;5169;50.560;9.714;2023-04-15T06:20:56;6.90;99.90
10249;DHT22;5169;50.560;9.714;2023-04-15T06:23:21;6.90;99.90
10249;DHT22;5169;50.560;9.714;2023-04-15T06:25:47;6.90;99.90
10249;DHT22;5169;50.560;9.714;2023-04-15T06:28:13;6.80;99.90
10249;DHT22;5169;50.560;9.714;2023-04-15T06:30:38;6.80;99.90
10249;DHT22;5169;50.560;9.714;2023-04-15T06:33:04;7.00;99.90
10249;DHT22;5169;50.560;9.714;2023-04-15T06:35:30;7.00;99.90
10249;DHT22;5169;50.560;9.714;2023-04-15T06:37:58;7.20;99.90
10249;DHT22;5169;50.560;9.714;2023-04-15T06:40:26;7.20;99.90
10249;DHT22;5169;50.560;9.714;2023-04-15T06:42:52;7.00;99.90
10249;DHT22;5169;50.560;9.714;2023-04-15T06:45:20;7.00;99.90
10249;DHT22;5169;50.560;9.714;2023-04-15T06:47:45;7.00;99.90
10249;DHT22;5169;50.560;9.714;2023-04-15T06:50:11;7.20;99.90
10249;DHT22;5169;50.560;9.714;2023-04-15T06:52:37;7.40;99.90
10249;DHT22;5169;50.560;9.714;2023-04-15T06:55:05;7.70;99.90
10249;DHT22;5169;50.560;9.714;2023-04-15T06:57:31;7.70;99.90
10249;DHT22;5169;50.560;9.714;2023-04-15T07:00:01;7.50;99.90
10249;DHT22;5169;50.560;9.714;2023-04-15T07:02:28;7.60;99.90
10249;DHT22;5169;50.560;9.714;2023-04-15T07:04:53;7.60;99.90
10249;DHT22;5169;50.560;9.714;2023-04-15T07:07:21;7.90;99.90
10249;DHT22;5169;50.560;9.714;2023-04-15T07:09:47;7.90;99.90
10249;DHT22;5169;50.560;9.714;2023-04-15T07:12:12;8.10;99.90
10249;DHT22;5169;50.560;9.714;2023-04-15T07:14:38;8.10;99.90
10249;DHT22;5169;50.560;9.714;2023-04-15T07:17:04;8.30;99.90
10249;DHT22;5169;50.560;9.714;2023-04-15T07:19:29;8.40;99.90
10249;DHT22;5169;50.560;9.714;2023-04-15T07:21:55;8.30;99.90
10249;DHT22;5169;50.560;9.714;2023-04-15T07:24:21;8.30;99.90
10249;DHT22;5169;50.560;9.714;2023-04-15T07:26:47;8.30;99.90
10249;DHT22;5169;50.560;9.714;2023-04-15T07:29:15;8.30;99.90
10249;DHT22;5169;50.560;9.714;2023-04-15T07:31:41;8.20;99.90
10249;DHT22;5169;50.560;9.714;2023-04-15T07:34:07;8.20;99.90
10249;DHT22;5169;50.560;9.714;2023-04-15T07:36:32;8.30;99.90
10249;DHT22;5169;50.560;9.714;2023-04-15T07:39:00;8.30;99.90
10249;DHT22;5169;50.560;9.714;2023-04-15T07:41:28;8.40;99.90
10249;DHT22;5169;50.560;9.714;2023-04-15T07:43:54;8.40;99.90
10249;DHT22;5169;50.560;9.714;2023-04-15T07:46:21;8.40;99.90
10249;DHT22;5169;50.560;9.714;2023-04-15T07:48:49;8.40;99.90
10249;DHT22;5169;50.560;9.714;2023-04-15T07:51:17;8.50;99.90
10249;DHT22;5169;50.560;9.714;2023-04-15T07:53:43;8.50;99.90
10249;DHT22;5169;50.560;9.714;2023-04-15T07:56:09;8.40;99.90
10249;DHT22;5169;50.560;9.714;2023-04-15T07:58:35;8.40;99.90
10249;DHT22;5169;50.560;9.714;2023-04-15T08:01:04;8.40;99.90
10249;DHT22;5169;50.560;9.714;2023-04-15T08:03:29;8.40;99.90
10249;DHT22;5169;50.560;9.714;2023-04-15T08:05:58;8.50;99.90
10249;DHT22;5169;50.560;9.714;2023-04-15T08:08:23;8.40;99.90
10249;DHT22;5169;50.560;9.714;2023-04-15T08:10:52;8.30;99.90
10249;DHT22;5169;50.560;9.714;2023-04-15T08:13:18;8.20;99.90
10249;DHT22;5169;50.560;9.714;2023-04-15T08:15:44;8.20;99.90
10249;DHT22;5169;50.560;9.714;2023-04-15T08:18:11;8.10;99.90
10249;DHT22;5169;50.560;9.714;2023-04-15T08:20:37;8.10;99.90
10249;DHT22;5169;50.560;9.714;2023-04-15T08:23:02;8.00;99.90
10249;DHT22;5169;50.560;9.714;2023-04-15T08:25:31;8.00;99.90
10249;DHT22;5169;50.560;9.714;2023-04-15T08:27:57;8.00;99.90
10249;DHT22;5169;50.560;9.714;2023-04-15T08:30:30;8.00;99.90
10249;DHT22;5169;50.560;9.714;2023-04-15T08:32:55;8.00;99.90
10249;DHT22;5169;50.560;9.714;2023-04-15T08:35:21;8.00;99.90
10249;DHT22;5169;50.560;9.714;2023-04-15T08:37:47;7.90;99.90
10249;DHT22;5169;50.560;9.714;2023-04-15T08:40:12;8.00;99.90
10249;DHT22;5169;50.560;9.714;2023-04-15T08:42:43;8.00;99.90
10249;DHT22;5169;50.560;9.714;2023-04-15T08:45:10;8.00;99.90
10249;DHT22;5169;50.560;9.714;2023-04-15T08:47:37;8.10;99.90
10249;DHT22;5169;50.560;9.714;2023-04-15T08:50:08;8.10;99.90
10249;DHT22;5169;50.560;9.714;2023-04-15T08:52:34;8.20;99.90
10249;DHT22;5169;50.560;9.714;2023-04-15T08:55:03;8.30;99.90
10249;DHT22;5169;50.560;9.714;2023-04-15T08:57:30;8.30;99.90
10249;DHT22;5169;50.560;9.714;2023-04-15T08:59:56;8.30;99.90
10249;DHT22;5169;50.560;9.714;2023-04-15T09:02:25;8.50;99.90
10249;DHT22;5169;50.560;9.714;2023-04-15T09:04:52;8.40;99.90
10249;DHT22;5169;50.560;9.714;2023-04-15T09:07:17;8.40;99.90
10249;DHT22;5169;50.560;9.714;2023-04-15T09:09:43;8.50;99.90
10249;DHT22;5169;50.560;9.714;2023-04-15T09:12:10;8.60;99.90
10249;DHT22;5169;50.560;9.714;2023-04-15T09:14:42;8.60;99.90
10249;DHT22;5169;50.560;9.714;2023-04-15T09:17:09;8.60;99.90
10249;DHT22;5169;50.560;9.714;2023-04-15T09:19:37;8.70;99.90
10249;DHT22;5169;50.560;9.714;2023-04-15T09:22:03;8.70;99.90
10249;DHT22;5169;50.560;9.714;2023-04-15T09:24:36;8.60;99.90
10249;DHT22;5169;50.560;9.714;2023-04-15T09:27:05;8.50;99.90
10249;DHT22;5169;50.560;9.714;2023-04-15T09:29:31;8.30;99.90
10249;DHT22;5169;50.560;9.714;2023-04-15T09:32:11;8.20;99.90
10249;DHT22;5169;50.560;9.714;2023-04-15T09:34:37;8.40;99.90
10249;DHT22;5169;50.560;9.714;2023-04-15T09:37:03;8.60;99.90
10249;DHT22;5169;50.560;9.714;2023-04-15T09:39:45;8.60;99.90
10249;DHT22;5169;50.560;9.714;2023-04-15T09:42:11;8.50;99.90
10249;DHT22;5169;50.560;9.714;2023-04-15T09:44:37;8.40;99.90
10249;DHT22;5169;50.560;9.714;2023-04-15T09:47:02;8.30;99.90
10249;DHT22;5169;50.560;9.714;2023-04-15T09:49:28;8.30;99.90
10249;DHT22;5169;50.560;9.714;2023-04-15T09:52:00;8.30;99.90
10249;DHT22;5169;50.560;9.714;2023-04-15T09:54:36;8.20;99.90
10249;DHT22;5169;50.560;9.714;2023-04-15T09:57:07;8.20;99.90
10249;DHT22;5169;50.560;9.714;2023-04-15T09:59:34;8.20;99.90
10249;DHT22;5169;50.560;9.714;2023-04-15T10:02:04;8.30;99.90
10249;DHT22;5169;50.560;9.714;2023-04-15T10:04:35;8.30;99.90
10249;DHT22;5169;50.560;9.714;2023-04-15T10:07:03;8.20;99.90
10249;DHT22;5169;50.560;9.714;2023-04-15T10:09:33;8.40;99.90
10249;DHT22;5169;50.560;9.714;2023-04-15T10:12:00;8.30;99.90
10249;DHT22;5169;50.560;9.714;2023-04-15T10:14:32;8.40;99.90
10249;DHT22;5169;50.560;9.714;2023-04-15T10:17:00;8.50;99.90
10249;DHT22;5169;50.560;9.714;2023-04-15T10:19:27;8.60;99.90
10249;DHT22;5169;50.560;9.714;2023-04-15T10:21:55;8.60;99.90
10249;DHT22;5169;50.560;9.714;2023-04-15T10:24:24;8.50;99.90
10249;DHT22;5169;50.560;9.714;2023-04-15T10:26:53;8.40;99.90
10249;DHT22;5169;50.560;9.714;2023-04-15T10:29:24;8.20;99.90
10249;DHT22;5169;50.560;9.714;2023-04-15T10:31:50;8.10;99.90
10249;DHT22;5169;50.560;9.714;2023-04-15T10:34:17;8.10;99.90
10249;DHT22;5169;50.560;9.714;2023-04-15T10:36:45;8.20;99.90
10249;DHT22;5169;50.560;9.714;2023-04-15T10:42:10;8.20;99.90
10249;DHT22;5169;50.560;9.714;2023-04-15T10:44:37;8.20;99.90
10249;DHT22;5169;50.560;9.714;2023-04-15T10:47:14;8.20;99.90
10249;DHT22;5169;50.560;9.714;2023-04-15T10:52:17;8.10;99.90
10249;DHT22;5169;50.560;9.714;2023-04-15T10:54:43;8.10;99.90
10249;DHT22;5169;50.560;9.714;2023-04-15T10:57:37;8.00;99.90
10249;DHT22;5169;50.560;9.714;2023-04-15T11:00:15;8.10;99.90
10249;DHT22;5169;50.560;9.714;2023-04-15T11:08:06;8.40;99.90
10249;DHT22;5169;50.560;9.714;2023-04-15T11:15:40;8.60;99.90
10249;DHT22;5169;50.560;9.714;2023-04-15T11:18:22;8.70;99.90
10249;DHT22;5169;50.560;9.714;2023-04-15T11:20:52;8.50;99.90
10249;DHT22;5169;50.560;9.714;2023-04-15T11:23:36;8.40;99.90
10249;DHT22;5169;50.560;9.714;2023-04-15T11:26:06;8.50;99.90
10249;DHT22;5169;50.560;9.714;2023-04-15T11:28:37;8.60;99.90
10249;DHT22;5169;50.560;9.714;2023-04-15T11:33:33;8.70;99.90
10249;DHT22;5169;50.560;9.714;2023-04-15T11:35:59;8.60;99.90
10249;DHT22;5169;50.560;9.714;2023-04-15T11:38:30;8.60;99.90
10249;DHT22;5169;50.560;9.714;2023-04-15T11:40:58;8.60;99.90
10249;DHT22;5169;50.560;9.714;2023-04-15T11:43:26;8.60;99.90
10249;DHT22;5169;50.560;9.714;2023-04-15T11:46:01;8.50;99.90
10249;DHT22;5169;50.560;9.714;2023-04-15T11:53:20;8.40;99.90
10249;DHT22;5169;50.560;9.714;2023-04-15T11:55:48;8.40;99.90
10249;DHT22;5169;50.560;9.714;2023-04-15T12:00:51;8.50;99.90
10249;DHT22;5169;50.560;9.714;2023-04-15T12:09:11;8.60;99.90
10249;DHT22;5169;50.560;9.714;2023-04-15T12:11:55;8.70;99.90
10249;DHT22;5169;50.560;9.714;2023-04-15T12:14:26;8.70;99.90
10249;DHT22;5169;50.560;9.714;2023-04-15T12:17:13;8.70;99.90
10249;DHT22;5169;50.560;9.714;2023-04-15T12:19:40;8.70;99.90
10249;DHT22;5169;50.560;9.714;2023-04-15T12:22:16;8.70;99.90
10249;DHT22;5169;50.560;9.714;2023-04-15T12:24:43;8.70;99.90
10249;DHT22;5169;50.560;9.714;2023-04-15T12:27:13;8.70;99.90
10249;DHT22;5169;50.560;9.714;2023-04-15T12:29:40;8.90;99.90
10249;DHT22;5169;50.560;9.714;2023-04-15T12:32:11;8.90;99.90
10249;DHT22;5169;50.560;9.714;2023-04-15T12:34:38;8.90;99.90
10249;DHT22;5169;50.560;9.714;2023-04-15T12:37:05;8.90;99.90
10249;DHT22;5169;50.560;9.714;2023-04-15T12:39:41;8.90;99.90
10249;DHT22;5169;50.560;9.714;2023-04-15T12:42:08;8.90;99.90
10249;DHT22;5169;50.560;9.714;2023-04-15T12:44:35;9.00;99.90
10249;DHT22;5169;50.560;9.714;2023-04-15T12:47:01;9.10;99.90
10249;DHT22;5169;50.560;9.714;2023-04-15T12:49:27;9.10;99.90
10249;DHT22;5169;50.560;9.714;2023-04-15T12:51:55;9.00;99.90
10249;DHT22;5169;50.560;9.714;2023-04-15T12:54:21;8.90;99.90
10249;DHT22;5169;50.560;9.714;2023-04-15T12:56:51;9.10;99.90
10249;DHT22;5169;50.560;9.714;2023-04-15T12:59:19;9.20;99.90
10249;DHT22;5169;50.560;9.714;2023-04-15T13:01:48;9.20;99.90
10249;DHT22;5169;50.560;9.714;2023-04-15T13:04:14;9.10;99.90
10249;DHT22;5169;50.560;9.714;2023-04-15T13:06:40;9.00;99.90
10249;DHT22;5169;50.560;9.714;2023-04-15T13:09:11;8.90;99.90
10249;DHT22;5169;50.560;9.714;2023-04-15T13:11:42;8.90;99.90
10249;DHT22;5169;50.560;9.714;2023-04-15T13:14:10;8.90;99.90
10249;DHT22;5169;50.560;9.714;2023-04-15T13:16:37;8.90;99.90
10249;DHT22;5169;50.560;9.714;2023-04-15T13:19:05;8.90;99.90
10249;DHT22;5169;50.560;9.714;2023-04-15T13:21:31;8.90;99.90
10249;DHT22;5169;50.560;9.714;2023-04-15T13:24:02;8.80;99.90
10249;DHT22;5169;50.560;9.714;2023-04-15T13:26:28;8.60;99.90
10249;DHT22;5169;50.560;9.714;2023-04-15T13:28:53;8.60;99.90
10249;DHT22;5169;50.560;9.714;2023-04-15T13:31:21;8.60;99.90
10249;DHT22;5169;50.560;9.714;2023-04-15T13:33:47;8.60;99.90
10249;DHT22;5169;50.560;9.714;2023-04-15T13:36:13;8.60;99.90
10249;DHT22;5169;50.560;9.714;2023-04-15T13:38:40;8.50;99.90
10249;DHT22;5169;50.560;9.714;2023-04-15T13:41:06;8.50;99.90
10249;DHT22;5169;50.560;9.714;2023-04-15T13:43:32;8.50;99.90
10249;DHT22;5169;50.560;9.714;2023-04-15T13:45:58;8.40;99.90
10249;DHT22;5169;50.560;9.714;2023-04-15T13:48:24;8.30;99.90
10249;DHT22;5169;50.560;9.714;2023-04-15T13:50:49;8.30;99.90
10249;DHT22;5169;50.560;9.714;2023-04-15T13:53:15;8.40;99.90
10249;DHT22;5169;50.560;9.714;2023-04-15T13:55:41;8.40;99.90
10249;DHT22;5169;50.560;9.714;2023-04-15T13:58:10;8.40;99.90
10249;DHT22;5169;50.560;9.714;2023-04-15T14:00:40;8.40;99.90
10249;DHT22;5169;50.560;9.714;2023-04-15T14:03:06;8.30;99.90
10249;DHT22;5169;50.560;9.714;2023-04-15T14:05:32;8.30;99.90
10249;DHT22;5169;50.560;9.714;2023-04-15T14:07:58;8.30;99.90
10249;DHT22;5169;50.560;9.714;2023-04-15T14:10:26;8.30;99.90
10249;DHT22;5169;50.560;9.714;2023-04-15T14:12:54;8.30;99.90
10249;DHT22;5169;50.560;9.714;2023-04-15T14:15:22;8.40;99.90
10249;DHT22;5169;50.560;9.714;2023-04-15T14:17:47;8.40;99.90
10249;DHT22;5169;50.560;9.714;2023-04-15T14:20:15;8.50;99.90
10249;DHT22;5169;50.560;9.714;2023-04-15T14:22:41;8.50;99.90
10249;DHT22;5169;50.560;9.714;2023-04-15T14:25:07;8.50;99.90
10249;DHT22;5169;50.560;9.714;2023-04-15T14:27:32;8.50;99.90
10249;DHT22;5169;50.560;9.714;2023-04-15T14:29:58;8.50;99.90
10249;DHT22;5169;50.560;9.714;2023-04-15T14:32:25;8.50;99.90
10249;DHT22;5169;50.560;9.714;2023-04-15T14:34:51;8.50;99.90
10249;DHT22;5169;50.560;9.714;2023-04-15T14:37:17;8.60;99.90
10249;DHT22;5169;50.560;9.714;2023-04-15T14:39:42;8.60;99.90
10249;DHT22;5169;50.560;9.714;2023-04-15T14:42:10;8.70;99.90
10249;DHT22;5169;50.560;9.714;2023-04-15T14:44:35;8.60;99.90
10249;DHT22;5169;50.560;9.714;2023-04-15T14:47:01;8.70;99.90
10249;DHT22;5169;50.560;9.714;2023-04-15T14:49:27;8.60;99.90
10249;DHT22;5169;50.560;9.714;2023-04-15T14:51:52;8.60;99.90
10249;DHT22;5169;50.560;9.714;2023-04-15T14:54:18;8.50;99.90
10249;DHT22;5169;50.560;9.714;2023-04-15T14:56:43;8.60;99.90
10249;DHT22;5169;50.560;9.714;2023-04-15T14:59:09;8.60;99.90
10249;DHT22;5169;50.560;9.714;2023-04-15T15:01:35;8.60;99.90
10249;DHT22;5169;50.560;9.714;2023-04-15T15:04:03;8.60;99.90
10249;DHT22;5169;50.560;9.714;2023-04-15T15:06:31;8.60;99.90
10249;DHT22;5169;50.560;9.714;2023-04-15T15:08:59;8.60;99.90
10249;DHT22;5169;50.560;9.714;2023-04-15T15:11:27;8.60;99.90
10249;DHT22;5169;50.560;9.714;2023-04-15T15:13:54;8.70;99.90
10249;DHT22;5169;50.560;9.714;2023-04-15T15:16:20;8.70;99.90
10249;DHT22;5169;50.560;9.714;2023-04-15T15:18:45;8.70;99.90
10249;DHT22;5169;50.560;9.714;2023-04-15T15:21:11;8.70;99.90
10249;DHT22;5169;50.560;9.714;2023-04-15T15:23:39;8.70;99.90
10249;DHT22;5169;50.560;9.714;2023-04-15T15:26:04;8.70;99.90
10249;DHT22;5169;50.560;9.714;2023-04-15T15:28:30;8.60;99.90
10249;DHT22;5169;50.560;9.714;2023-04-15T15:30:56;8.60;99.90
10249;DHT22;5169;50.560;9.714;2023-04-15T15:33:21;8.50;99.90
10249;DHT22;5169;50.560;9.714;2023-04-15T15:35:47;8.50;99.90
10249;DHT22;5169;50.560;9.714;2023-04-15T15:38:15;8.50;99.90
10249;DHT22;5169;50.560;9.714;2023-04-15T15:40:41;8.50;99.90
10249;DHT22;5169;50.560;9.714;2023-04-15T15:43:06;8.50;99.90
10249;DHT22;5169;50.560;9.714;2023-04-15T15:45:34;8.50;99.90
10249;DHT22;5169;50.560;9.714;2023-04-15T15:48:01;8.40;99.90
10249;DHT22;5169;50.560;9.714;2023-04-15T15:50:26;8.40;99.90
10249;DHT22;5169;50.560;9.714;2023-04-15T15:52:52;8.40;99.90
10249;DHT22;5169;50.560;9.714;2023-04-15T15:55:20;8.40;99.90
10249;DHT22;5169;50.560;9.714;2023-04-15T15:57:48;8.40;99.90
10249;DHT22;5169;50.560;9.714;2023-04-15T16:00:16;8.40;99.90
10249;DHT22;5169;50.560;9.714;2023-04-15T16:02:42;8.40;99.90
10249;DHT22;5169;50.560;9.714;2023-04-15T16:05:10;8.30;99.90
10249;DHT22;5169;50.560;9.714;2023-04-15T16:07:36;8.40;99.90
10249;DHT22;5169;50.560;9.714;2023-04-15T16:10:04;8.40;99.90
10249;DHT22;5169;50.560;9.714;2023-04-15T16:12:32;8.30;99.90
10249;DHT22;5169;50.560;9.714;2023-04-15T16:14:58;8.40;99.90
10249;DHT22;5169;50.560;9.714;2023-04-15T16:17:26;8.40;99.90
10249;DHT22;5169;50.560;9.714;2023-04-15T16:19:51;8.50;99.90
10249;DHT22;5169;50.560;9.714;2023-04-15T16:22:19;8.50;99.90
10249;DHT22;5169;50.560;9.714;2023-04-15T16:24:45;8.60;99.90
10249;DHT22;5169;50.560;9.714;2023-04-15T16:27:10;8.50;99.90
10249;DHT22;5169;50.560;9.714;2023-04-15T16:29:42;8.60;99.90
10249;DHT22;5169;50.560;9.714;2023-04-15T16:32:10;8.60;99.90
10249;DHT22;5169;50.560;9.714;2023-04-15T16:34:41;8.60;99.90
10249;DHT22;5169;50.560;9.714;2023-04-15T16:37:09;8.60;99.90